createdAt,value
2023-02-06T00:00:47.198Z,85.98
2023-02-06T00:03:13.586Z,86.19
2023-02-06T00:05:40.139Z,86.19
2023-02-06T00:08:07.204Z,86.30
2023-02-06T00:10:34.212Z,86.43
2023-02-06T00:13:00.770Z,86.55
2023-02-06T00:15:27.282Z,86.39
2023-02-06T00:17:53.675Z,86.26
2023-02-06T00:20:20.093Z,86.33
2023-02-06T00:22:46.550Z,86.21
2023-02-06T00:25:12.931Z,86.34
2023-02-06T00:27:39.306Z,86.85
2023-02-06T00:30:06.268Z,86.41
2023-02-06T00:32:34.801Z,86.29
2023-02-06T00:35:01.219Z,86.15
2023-02-06T00:37:27.655Z,86.25
2023-02-06T00:39:54.052Z,86.28
2023-02-06T00:42:20.663Z,86.21
2023-02-06T00:44:47.086Z,86.25
2023-02-06T00:47:13.526Z,86.24
2023-02-06T00:49:39.905Z,86.19
2023-02-06T00:52:06.347Z,86.33
2023-02-06T00:54:32.793Z,86.41
2023-02-06T00:56:59.212Z,86.11
2023-02-06T00:59:25.579Z,86.59
2023-02-06T01:01:52.007Z,86.31
2023-02-06T01:04:18.509Z,86.39
2023-02-06T01:06:45.002Z,86.27
2023-02-06T01:09:11.498Z,86.47
2023-02-06T01:11:37.869Z,86.84
2023-02-06T01:14:04.382Z,86.58
2023-02-06T01:16:30.770Z,86.64
2023-02-06T01:18:57.169Z,86.56
2023-02-06T01:21:24.853Z,86.62
2023-02-06T01:23:52.772Z,86.40
2023-02-06T01:26:22.371Z,86.53
2023-02-06T01:28:49.366Z,86.85
2023-02-06T01:31:23.955Z,86.57
2023-02-06T01:33:50.966Z,86.81
2023-02-06T01:36:18.314Z,86.78
2023-02-06T01:38:45.352Z,86.75
2023-02-06T01:41:12.816Z,86.94
2023-02-06T01:43:42.813Z,86.80
2023-02-06T01:46:09.551Z,86.83
2023-02-06T01:48:40.700Z,86.67
2023-02-06T01:51:09.895Z,86.72
2023-02-06T01:53:36.565Z,86.69
2023-02-06T01:56:04.769Z,86.89
2023-02-06T01:58:36.246Z,86.89
2023-02-06T02:01:03.259Z,87.03
2023-02-06T02:03:31.414Z,86.99
2023-02-06T02:06:00.501Z,86.88
2023-02-06T02:08:48.115Z,87.02
2023-02-06T02:11:18.884Z,87.09
2023-02-06T02:13:45.541Z,87.18
2023-02-06T02:16:33.252Z,86.84
2023-02-06T02:19:29.157Z,87.10
2023-02-06T02:22:30.037Z,86.94
2023-02-06T02:25:17.870Z,86.78
2023-02-06T02:27:59.333Z,86.91
2023-02-06T02:30:53.717Z,87.00
2023-02-06T02:33:58.043Z,87.06
2023-02-06T02:36:32.969Z,86.75
2023-02-06T02:39:23.211Z,86.97
2023-02-06T02:42:03.921Z,86.97
2023-02-06T02:45:08.047Z,87.24
2023-02-06T02:47:42.982Z,87.01
2023-02-06T02:50:12.461Z,86.98
2023-02-06T02:52:38.849Z,86.92
2023-02-06T02:55:20.712Z,86.75
2023-02-06T02:57:49.618Z,86.43
2023-02-06T03:00:17.650Z,86.71
2023-02-06T03:02:45.415Z,86.94
2023-02-06T03:05:15.135Z,86.90
2023-02-06T03:08:02.595Z,87.00
2023-02-06T03:10:44.351Z,87.22
2023-02-06T03:13:17.496Z,87.16
2023-02-06T03:15:56.699Z,87.28
2023-02-06T03:18:32.203Z,87.38
2023-02-06T03:21:00.037Z,87.47
2023-02-06T03:23:29.585Z,87.23
2023-02-06T03:25:58.896Z,86.91
2023-02-06T03:28:27.954Z,86.95
2023-02-06T03:30:56.940Z,87.06
2023-02-06T03:33:28.705Z,87.01
2023-02-06T03:35:56.805Z,86.95
2023-02-06T03:38:24.755Z,87.10
2023-02-06T03:40:51.903Z,86.95
2023-02-06T03:43:20.159Z,86.96
2023-02-06T03:45:49.242Z,87.17
2023-02-06T03:48:19.711Z,87.35
2023-02-06T03:50:47.836Z,87.17
2023-02-06T03:53:14.756Z,87.35
2023-02-06T03:55:42.963Z,86.84
2023-02-06T03:58:12.408Z,87.46
2023-02-06T04:00:39.457Z,87.39
2023-02-06T04:03:06.139Z,87.28
2023-02-06T04:05:32.501Z,87.07
2023-02-06T04:07:58.939Z,87.14
2023-02-06T04:10:26.433Z,87.45
2023-02-06T04:12:53.104Z,87.67
2023-02-06T04:15:19.513Z,87.76
2023-02-06T04:17:58.981Z,87.70
2023-02-06T04:20:26.477Z,87.59
2023-02-06T04:22:52.938Z,87.40
2023-02-06T04:25:19.355Z,87.59
2023-02-06T04:27:45.840Z,87.33
2023-02-06T04:30:12.997Z,87.15
2023-02-06T04:32:39.393Z,87.48
2023-02-06T04:35:05.875Z,87.40
2023-02-06T04:37:32.787Z,87.46
2023-02-06T04:39:59.216Z,87.28
2023-02-06T04:42:25.601Z,87.76
2023-02-06T04:44:52.066Z,87.46
2023-02-06T04:47:18.541Z,87.17
2023-02-06T04:49:44.970Z,87.24
2023-02-06T04:52:11.443Z,87.67
2023-02-06T04:54:37.854Z,87.74
2023-02-06T04:57:04.281Z,87.81
2023-02-06T04:59:30.717Z,87.82
2023-02-06T05:01:57.145Z,87.80
2023-02-06T05:04:23.552Z,87.71
2023-02-06T05:06:49.993Z,87.74
2023-02-06T05:09:16.423Z,87.96
2023-02-06T05:11:42.855Z,87.79
2023-02-06T05:14:09.259Z,88.23
2023-02-06T05:16:35.650Z,87.83
2023-02-06T05:19:02.033Z,88.08
2023-02-06T05:21:28.818Z,88.09
2023-02-06T05:23:55.277Z,87.81
2023-02-06T05:26:21.678Z,87.73
2023-02-06T05:28:48.056Z,88.09
2023-02-06T05:31:19.519Z,87.93
2023-02-06T05:33:47.524Z,88.01
2023-02-06T05:36:14.083Z,87.79
2023-02-06T05:38:40.478Z,88.15
2023-02-06T05:41:06.892Z,88.44
2023-02-06T05:43:33.716Z,88.50
2023-02-06T05:46:00.190Z,88.74
2023-02-06T05:48:29.002Z,88.75
2023-02-06T05:50:55.375Z,88.97
2023-02-06T05:53:21.790Z,88.60
2023-02-06T05:55:48.153Z,88.86
2023-02-06T05:58:14.607Z,88.72
2023-02-06T06:00:41.075Z,88.33
2023-02-06T06:03:07.698Z,88.56
2023-02-06T06:05:34.357Z,88.41
2023-02-06T06:08:00.854Z,88.53
2023-02-06T06:10:27.232Z,88.50
2023-02-06T06:12:53.599Z,88.72
2023-02-06T06:15:19.970Z,88.67
2023-02-06T06:17:46.363Z,88.60
2023-02-06T06:20:12.809Z,88.54
2023-02-06T06:22:39.258Z,88.72
2023-02-06T06:25:07.006Z,89.01
2023-02-06T06:27:33.799Z,88.30
2023-02-06T06:30:00.220Z,88.69
2023-02-06T06:32:26.666Z,89.00
2023-02-06T06:34:53.050Z,88.98
2023-02-06T06:37:19.414Z,88.44
2023-02-06T06:39:45.809Z,88.52
2023-02-06T06:42:12.168Z,89.05
2023-02-06T06:44:38.646Z,89.10
2023-02-06T06:47:05.130Z,88.89
2023-02-06T06:49:33.156Z,88.75
2023-02-06T06:51:59.620Z,88.48
2023-02-06T06:54:26.105Z,88.88
2023-02-06T06:56:52.634Z,88.84
2023-02-06T06:59:19.045Z,88.54
2023-02-06T07:01:46.065Z,89.17
2023-02-06T07:04:12.493Z,88.87
2023-02-06T07:06:38.979Z,89.17
2023-02-06T07:09:05.417Z,89.03
2023-02-06T07:11:31.845Z,89.27
2023-02-06T07:13:58.300Z,89.05
2023-02-06T07:16:24.774Z,89.01
2023-02-06T07:18:51.271Z,88.90
2023-02-06T07:21:19.745Z,88.86
2023-02-06T07:23:46.365Z,88.90
2023-02-06T07:26:12.942Z,88.92
2023-02-06T07:28:39.361Z,89.21
2023-02-06T07:31:06.902Z,89.09
2023-02-06T07:33:34.584Z,89.17
2023-02-06T07:36:03.880Z,89.16
2023-02-06T07:38:30.645Z,89.19
2023-02-06T07:41:01.436Z,89.41
2023-02-06T07:43:27.902Z,89.35
2023-02-06T07:45:54.295Z,89.34
2023-02-06T07:48:20.734Z,90.27
2023-02-06T07:50:47.120Z,89.99
2023-02-06T07:53:13.534Z,89.97
2023-02-06T07:55:39.995Z,89.92
2023-02-06T07:58:06.519Z,89.42
2023-02-06T08:00:33.121Z,89.89
2023-02-06T08:02:59.544Z,90.14
2023-02-06T08:05:26.006Z,90.04
2023-02-06T08:07:52.445Z,89.75
2023-02-06T08:10:18.890Z,90.14
2023-02-06T08:12:45.319Z,89.90
2023-02-06T08:15:11.828Z,90.15
2023-02-06T08:17:38.215Z,90.10
2023-02-06T08:20:04.641Z,89.81
2023-02-06T08:22:31.001Z,89.63
2023-02-06T08:24:57.406Z,89.48
2023-02-06T08:27:23.769Z,89.66
2023-02-06T08:29:51.663Z,89.70
2023-02-06T08:32:18.051Z,89.48
2023-02-06T08:34:44.619Z,89.59
2023-02-06T08:37:11.240Z,90.10
2023-02-06T08:39:38.366Z,90.05
2023-02-06T08:42:05.153Z,89.74
2023-02-06T08:44:31.665Z,89.79
2023-02-06T08:47:09.282Z,89.63
2023-02-06T08:49:36.627Z,89.87
2023-02-06T08:52:03.078Z,89.53
2023-02-06T08:54:29.695Z,88.98
2023-02-06T08:57:00.954Z,88.83
2023-02-06T08:59:29.397Z,88.66
2023-02-06T09:01:55.815Z,88.57
2023-02-06T09:04:22.230Z,88.50
2023-02-06T09:06:49.115Z,88.40
2023-02-06T09:09:15.974Z,88.30
2023-02-06T09:11:42.544Z,88.05
2023-02-06T09:14:13.513Z,87.70
2023-02-06T09:16:39.958Z,87.53
2023-02-06T09:19:06.476Z,87.32
2023-02-06T09:21:34.830Z,87.07
2023-02-06T09:24:03.896Z,86.78
2023-02-06T09:26:44.869Z,86.75
2023-02-06T09:29:20.057Z,87.02
2023-02-06T09:31:47.172Z,86.85
2023-02-06T09:34:13.734Z,86.83
2023-02-06T09:36:40.896Z,86.64
2023-02-06T09:39:08.386Z,86.08
2023-02-06T09:41:47.106Z,85.67
2023-02-06T09:44:29.849Z,85.29
2023-02-06T09:47:17.411Z,85.01
2023-02-06T09:49:55.529Z,84.41
2023-02-06T09:52:24.950Z,84.31
2023-02-06T09:55:09.106Z,83.89
2023-02-06T09:57:45.439Z,83.06
2023-02-06T10:00:12.360Z,83.58
2023-02-06T10:02:57.410Z,81.60
2023-02-06T10:05:54.448Z,81.04
2023-02-06T10:08:36.112Z,81.41
2023-02-06T10:11:09.821Z,78.65
2023-02-06T10:13:40.309Z,77.61
2023-02-06T10:16:30.770Z,74.79
2023-02-06T10:19:03.201Z,76.39
2023-02-06T10:21:37.070Z,74.65
2023-02-06T10:24:27.893Z,71.44
2023-02-06T10:26:55.557Z,73.51
2023-02-06T10:29:26.421Z,70.62
2023-02-06T10:32:14.276Z,70.96
2023-02-06T10:35:00.755Z,65.23
2023-02-06T10:37:47.751Z,63.73
2023-02-06T10:40:14.226Z,67.14
2023-02-06T10:42:46.873Z,64.53
2023-02-06T10:45:22.123Z,62.83
2023-02-06T10:47:55.000Z,64.04
2023-02-06T10:50:29.746Z,62.01
2023-02-06T10:52:59.866Z,62.45
2023-02-06T10:55:29.295Z,60.37
2023-02-06T10:58:19.300Z,58.00
2023-02-06T11:00:46.723Z,60.39
2023-02-06T11:03:16.171Z,59.54
2023-02-06T11:05:43.280Z,59.75
2023-02-06T11:08:13.785Z,58.06
2023-02-06T11:10:40.495Z,59.22
2023-02-06T11:13:13.822Z,56.68
2023-02-06T11:15:44.954Z,57.33
2023-02-06T11:18:14.842Z,57.32
2023-02-06T11:20:43.046Z,56.92
2023-02-06T11:23:19.110Z,55.65
2023-02-06T11:25:46.578Z,56.68
2023-02-06T11:28:18.229Z,57.23
2023-02-06T11:30:55.930Z,56.64
2023-02-06T11:33:27.942Z,56.55
2023-02-06T11:35:56.132Z,56.35
2023-02-06T11:38:24.566Z,56.82
2023-02-06T11:40:56.799Z,56.97
2023-02-06T11:43:29.481Z,57.73
2023-02-06T11:46:12.875Z,57.74
2023-02-06T11:48:41.129Z,57.37
2023-02-06T11:51:08.753Z,58.05
2023-02-06T11:53:35.922Z,59.29
2023-02-06T11:56:06.906Z,59.41
2023-02-06T11:58:33.570Z,60.25
2023-02-06T12:01:04.248Z,60.97
2023-02-06T12:03:32.883Z,61.47
2023-02-06T12:06:04.109Z,61.02
2023-02-06T12:08:41.006Z,60.89
2023-02-06T12:11:13.375Z,60.49
2023-02-06T12:13:44.013Z,60.85
2023-02-06T12:16:13.186Z,61.11
2023-02-06T12:18:42.256Z,60.46
2023-02-06T12:21:14.567Z,61.04
2023-02-06T12:23:49.509Z,59.43
2023-02-06T12:26:23.312Z,60.37
2023-02-06T12:28:52.809Z,61.02
2023-02-06T12:31:24.706Z,62.50
2023-02-06T12:34:04.609Z,62.27
2023-02-06T12:36:34.711Z,62.46
2023-02-06T12:39:04.579Z,62.29
2023-02-06T12:41:30.826Z,63.01
2023-02-06T12:44:08.616Z,61.58
2023-02-06T12:46:35.274Z,61.95
2023-02-06T12:49:26.791Z,61.61
2023-02-06T12:52:00.372Z,61.62
2023-02-06T12:54:31.840Z,62.42
2023-02-06T12:57:16.170Z,61.87
2023-02-06T13:00:13.115Z,61.45
2023-02-06T13:02:51.813Z,61.70
2023-02-06T13:05:39.750Z,60.81
2023-02-06T13:08:13.578Z,60.34
2023-02-06T13:10:40.462Z,60.19
2023-02-06T13:13:07.343Z,59.75
2023-02-06T13:15:40.789Z,57.69
2023-02-06T13:18:36.682Z,57.97
2023-02-06T13:21:24.147Z,55.74
2023-02-06T13:24:02.887Z,55.16
2023-02-06T13:26:48.814Z,54.14
2023-02-06T13:29:26.802Z,56.04
2023-02-06T13:32:11.924Z,56.73
2023-02-06T13:34:44.311Z,56.96
2023-02-06T13:37:25.846Z,57.66
2023-02-06T13:40:11.008Z,59.13
2023-02-06T13:42:51.903Z,59.75
2023-02-06T13:45:24.831Z,60.75
2023-02-06T13:48:19.059Z,61.68
2023-02-06T13:50:54.345Z,60.98
2023-02-06T13:54:01.179Z,60.61
2023-02-06T13:57:04.935Z,60.91
2023-02-06T13:59:36.932Z,61.17
2023-02-06T14:02:23.623Z,60.74
2023-02-06T14:04:50.374Z,61.47
2023-02-06T14:07:39.955Z,61.06
2023-02-06T14:10:35.200Z,61.14
2023-02-06T14:13:15.073Z,61.74
2023-02-06T14:15:48.828Z,61.97
2023-02-06T14:18:38.186Z,63.04
2023-02-06T14:21:24.634Z,62.07
2023-02-06T14:24:08.013Z,61.88
2023-02-06T14:27:00.937Z,62.49
2023-02-06T14:29:37.692Z,61.86
2023-02-06T14:32:06.450Z,62.56
2023-02-06T14:34:46.175Z,62.57
2023-02-06T14:37:25.122Z,63.85
2023-02-06T14:39:53.857Z,63.24
2023-02-06T14:42:27.634Z,61.66
2023-02-06T14:44:57.882Z,60.14
2023-02-06T14:47:27.709Z,58.51
2023-02-06T14:49:53.985Z,55.80
2023-02-06T14:52:23.669Z,56.77
2023-02-06T14:54:50.153Z,57.08
2023-02-06T14:57:29.567Z,57.05
2023-02-06T15:00:01.433Z,57.63
2023-02-06T15:02:35.622Z,58.71
2023-02-06T15:05:03.374Z,58.65
2023-02-06T15:07:33.851Z,59.06
2023-02-06T15:10:07.421Z,58.24
2023-02-06T15:12:34.876Z,58.47
2023-02-06T15:15:15.195Z,59.57
2023-02-06T15:17:41.928Z,60.08
2023-02-06T15:20:20.559Z,60.39
2023-02-06T15:22:47.033Z,60.84
2023-02-06T15:25:27.121Z,61.23
2023-02-06T15:28:18.747Z,62.24
2023-02-06T15:30:45.453Z,62.20
2023-02-06T15:33:17.930Z,62.42
2023-02-06T15:35:49.406Z,62.89
2023-02-06T15:38:16.690Z,62.75
2023-02-06T15:40:48.196Z,63.11
2023-02-06T15:43:17.025Z,62.61
2023-02-06T15:45:44.370Z,62.52
2023-02-06T15:48:24.803Z,61.52
2023-02-06T15:51:03.178Z,60.72
2023-02-06T15:53:36.106Z,61.08
2023-02-06T15:56:04.839Z,61.56
2023-02-06T15:58:32.845Z,61.24
2023-02-06T16:00:59.825Z,61.64
2023-02-06T16:03:27.569Z,61.35
2023-02-06T16:05:56.353Z,61.97
2023-02-06T16:08:27.065Z,62.80
2023-02-06T16:10:59.674Z,63.71
2023-02-06T16:13:28.027Z,63.89
2023-02-06T16:16:17.153Z,65.10
2023-02-06T16:18:43.727Z,64.88
2023-02-06T16:21:22.550Z,65.81
2023-02-06T16:23:53.438Z,66.59
2023-02-06T16:26:19.728Z,67.04
2023-02-06T16:29:02.886Z,67.46
2023-02-06T16:31:31.429Z,67.07
2023-02-06T16:34:03.264Z,67.70
2023-02-06T16:36:31.826Z,68.00
2023-02-06T16:39:04.034Z,68.60
2023-02-06T16:41:39.212Z,69.25
2023-02-06T16:44:12.859Z,69.71
2023-02-06T16:46:39.252Z,69.33
2023-02-06T16:49:10.743Z,70.31
2023-02-06T16:51:39.206Z,69.90
2023-02-06T16:54:07.304Z,69.91
2023-02-06T16:56:34.736Z,70.05
2023-02-06T16:59:01.249Z,70.34
2023-02-06T17:01:29.499Z,70.50
2023-02-06T17:03:55.976Z,71.29
2023-02-06T17:06:27.339Z,71.81
2023-02-06T17:08:57.293Z,72.09
2023-02-06T17:11:23.751Z,72.17
2023-02-06T17:13:50.177Z,72.07
2023-02-06T17:16:19.935Z,72.45
2023-02-06T17:18:47.118Z,72.09
2023-02-06T17:21:15.981Z,72.45
2023-02-06T17:23:42.566Z,72.62
2023-02-06T17:26:14.234Z,72.73
2023-02-06T17:28:41.121Z,73.08
2023-02-06T17:31:08.298Z,73.16
2023-02-06T17:33:35.252Z,73.11
2023-02-06T17:36:02.587Z,73.44
2023-02-06T17:38:29.050Z,73.82
2023-02-06T17:40:55.440Z,73.81
2023-02-06T17:43:22.081Z,73.73
2023-02-06T17:45:48.754Z,74.03
2023-02-06T17:48:15.170Z,74.53
2023-02-06T17:50:42.139Z,74.68
2023-02-06T17:53:13.712Z,75.12
2023-02-06T17:55:40.444Z,75.28
2023-02-06T17:58:07.387Z,74.97
2023-02-06T18:00:34.338Z,74.89
2023-02-06T18:03:00.903Z,74.93
2023-02-06T18:05:27.388Z,75.62
2023-02-06T18:07:53.897Z,75.90
2023-02-06T18:10:23.017Z,75.79
2023-02-06T18:12:49.430Z,75.92
2023-02-06T18:15:16.582Z,76.27
2023-02-06T18:17:43.332Z,76.80
2023-02-06T18:20:11.274Z,76.88
2023-02-06T18:22:41.211Z,77.00
2023-02-06T18:25:13.206Z,77.28
2023-02-06T18:27:41.533Z,77.59
2023-02-06T18:30:09.257Z,77.41
2023-02-06T18:32:37.596Z,77.81
2023-02-06T18:35:04.730Z,77.63
2023-02-06T18:37:31.144Z,77.81
2023-02-06T18:39:57.556Z,78.13
2023-02-06T18:42:42.564Z,78.58
2023-02-06T18:45:09.329Z,78.23
2023-02-06T18:47:35.739Z,78.80
2023-02-06T18:50:02.309Z,78.83
2023-02-06T18:52:28.977Z,78.75
2023-02-06T18:54:55.372Z,79.19
2023-02-06T18:57:21.724Z,79.38
2023-02-06T18:59:48.188Z,79.59
2023-02-06T19:02:14.636Z,80.06
2023-02-06T19:04:41.173Z,79.73
2023-02-06T19:07:08.897Z,79.92
2023-02-06T19:09:35.380Z,80.10
2023-02-06T19:12:01.775Z,80.26
2023-02-06T19:14:28.165Z,80.71
2023-02-06T19:16:54.987Z,80.70
2023-02-06T19:19:21.642Z,80.65
2023-02-06T19:21:48.242Z,80.91
2023-02-06T19:24:18.372Z,80.88
2023-02-06T19:26:45.500Z,80.43
2023-02-06T19:29:15.159Z,81.14
2023-02-06T19:31:42.605Z,81.04
2023-02-06T19:34:09.129Z,81.46
2023-02-06T19:36:35.764Z,81.45
2023-02-06T19:39:06.159Z,81.62
2023-02-06T19:41:34.153Z,81.28
2023-02-06T19:44:03.478Z,81.20
2023-02-06T19:46:29.907Z,80.95
2023-02-06T19:48:56.420Z,80.99
2023-02-06T19:51:29.655Z,81.98
2023-02-06T19:53:57.710Z,82.04
2023-02-06T19:56:39.221Z,81.90
2023-02-06T19:59:08.916Z,82.15
2023-02-06T20:01:36.003Z,81.78
2023-02-06T20:04:02.940Z,81.97
2023-02-06T20:06:34.727Z,82.20
2023-02-06T20:09:03.285Z,82.32
2023-02-06T20:11:31.633Z,82.47
2023-02-06T20:13:58.617Z,82.06
2023-02-06T20:16:28.111Z,82.21
2023-02-06T20:18:54.905Z,81.91
2023-02-06T20:21:29.374Z,81.94
2023-02-06T20:24:00.272Z,81.81
2023-02-06T20:26:29.909Z,82.07
2023-02-06T20:28:56.525Z,82.40
2023-02-06T20:31:23.231Z,82.29
2023-02-06T20:33:49.734Z,82.87
2023-02-06T20:36:19.211Z,82.61
2023-02-06T20:38:56.406Z,82.95
2023-02-06T20:41:27.608Z,82.52
2023-02-06T20:43:57.096Z,82.86
2023-02-06T20:46:24.791Z,82.94
2023-02-06T20:48:56.530Z,83.17
2023-02-06T20:51:23.443Z,83.04
2023-02-06T20:53:50.014Z,83.01
2023-02-06T20:56:17.854Z,82.79
2023-02-06T20:58:44.612Z,82.80
2023-02-06T21:01:28.571Z,82.87
2023-02-06T21:04:06.261Z,82.94
2023-02-06T21:06:34.096Z,82.90
2023-02-06T21:09:01.106Z,82.72
2023-02-06T21:11:29.504Z,83.15
2023-02-06T21:14:00.761Z,82.91
2023-02-06T21:16:27.878Z,82.84
2023-02-06T21:18:55.144Z,82.65
2023-02-06T21:21:21.997Z,82.72
2023-02-06T21:23:48.562Z,82.92
2023-02-06T21:26:17.304Z,83.05
2023-02-06T21:28:44.650Z,82.89
2023-02-06T21:31:16.039Z,83.37
2023-02-06T21:33:43.277Z,83.18
2023-02-06T21:36:09.798Z,83.39
2023-02-06T21:38:36.600Z,83.06
2023-02-06T21:41:07.998Z,83.24
2023-02-06T21:43:34.852Z,83.37
2023-02-06T21:46:01.978Z,83.46
2023-02-06T21:48:28.588Z,83.80
2023-02-06T21:50:55.125Z,83.63
2023-02-06T21:53:21.773Z,83.50
2023-02-06T21:55:48.469Z,83.43
2023-02-06T21:58:15.252Z,83.47
2023-02-06T22:00:44.293Z,83.70
2023-02-06T22:03:11.444Z,83.98
2023-02-06T22:05:38.262Z,83.94
2023-02-06T22:08:05.391Z,83.48
2023-02-06T22:10:32.134Z,83.62
2023-02-06T22:12:58.521Z,83.70
2023-02-06T22:15:24.982Z,83.56
2023-02-06T22:17:51.395Z,83.22
2023-02-06T22:20:17.915Z,83.83
2023-02-06T22:22:44.531Z,83.55
2023-02-06T22:25:11.695Z,83.78
2023-02-06T22:27:38.087Z,83.74
2023-02-06T22:30:05.795Z,83.81
2023-02-06T22:32:32.160Z,84.03
2023-02-06T22:34:59.681Z,83.69
2023-02-06T22:37:26.840Z,84.00
2023-02-06T22:39:56.064Z,83.95
2023-02-06T22:42:23.056Z,84.08
2023-02-06T22:44:49.613Z,84.31
2023-02-06T22:47:16.497Z,83.79
2023-02-06T22:49:43.081Z,83.76
2023-02-06T22:52:29.577Z,83.69
2023-02-06T22:54:56.084Z,84.02
2023-02-06T22:57:23.634Z,83.92
2023-02-06T22:59:50.153Z,83.58
2023-02-06T23:02:16.791Z,83.98
2023-02-06T23:04:43.225Z,84.00
2023-02-06T23:07:09.669Z,83.89
2023-02-06T23:09:37.522Z,84.04
2023-02-06T23:12:04.576Z,83.74
2023-02-06T23:14:32.572Z,84.50
2023-02-06T23:17:00.617Z,84.31
2023-02-06T23:19:27.179Z,84.24
2023-02-06T23:21:53.860Z,84.22
2023-02-06T23:24:20.674Z,83.99
2023-02-06T23:26:48.538Z,84.09
2023-02-06T23:29:17.240Z,84.05
2023-02-06T23:31:45.264Z,84.34
2023-02-06T23:34:11.992Z,84.33
2023-02-06T23:36:38.415Z,84.67
2023-02-06T23:39:05.387Z,84.08
2023-02-06T23:41:32.866Z,83.90
2023-02-06T23:44:05.268Z,83.89
2023-02-06T23:46:34.440Z,83.98
2023-02-06T23:49:00.919Z,83.96
2023-02-06T23:51:27.760Z,84.00
2023-02-06T23:53:54.336Z,84.12
2023-02-06T23:56:23.346Z,84.10
2023-02-06T23:58:50.391Z,84.33
